sensor_id;sensor_type;location;lat;lon;timestamp;P1;durP1;ratioP1;P2;durP2;ratioP2
34741;SDS011;20968;42.696;23.360;2024-02-26T00:00:25;101.68;;;52.35;;
34741;SDS011;20968;42.696;23.360;2024-02-26T00:02:50;103.10;;;45.92;;
34741;SDS011;20968;42.696;23.360;2024-02-26T00:05:16;106.38;;;50.00;;
34741;SDS011;20968;42.696;23.360;2024-02-26T00:07:41;101.97;;;49.13;;
34741;SDS011;20968;42.696;23.360;2024-02-26T00:10:07;102.78;;;45.97;;
34741;SDS011;20968;42.696;23.360;2024-02-26T00:12:33;107.25;;;46.13;;
34741;SDS011;20968;42.696;23.360;2024-02-26T00:14:59;98.20;;;44.20;;
34741;SDS011;20968;42.696;23.360;2024-02-26T00:17:24;97.10;;;44.33;;
34741;SDS011;20968;42.696;23.360;2024-02-26T00:19:50;92.47;;;48.05;;
34741;SDS011;20968;42.696;23.360;2024-02-26T00:22:15;96.78;;;47.67;;
34741;SDS011;20968;42.696;23.360;2024-02-26T00:24:40;91.72;;;46.38;;
34741;SDS011;20968;42.696;23.360;2024-02-26T00:27:06;108.95;;;48.83;;
34741;SDS011;20968;42.696;23.360;2024-02-26T00:29:32;94.85;;;42.72;;
34741;SDS011;20968;42.696;23.360;2024-02-26T00:31:57;107.30;;;46.67;;
34741;SDS011;20968;42.696;23.360;2024-02-26T00:34:23;104.28;;;46.42;;
34741;SDS011;20968;42.696;23.360;2024-02-26T00:36:49;134.57;;;60.90;;
34741;SDS011;20968;42.696;23.360;2024-02-26T00:39:14;112.85;;;48.17;;
34741;SDS011;20968;42.696;23.360;2024-02-26T00:41:40;103.28;;;49.15;;
34741;SDS011;20968;42.696;23.360;2024-02-26T00:44:05;103.55;;;50.22;;
34741;SDS011;20968;42.696;23.360;2024-02-26T00:46:31;100.97;;;50.33;;
34741;SDS011;20968;42.696;23.360;2024-02-26T00:48:56;100.80;;;45.28;;
34741;SDS011;20968;42.696;23.360;2024-02-26T00:51:22;104.88;;;46.83;;
34741;SDS011;20968;42.696;23.360;2024-02-26T00:53:47;90.90;;;45.72;;
34741;SDS011;20968;42.696;23.360;2024-02-26T00:56:12;93.22;;;44.78;;
34741;SDS011;20968;42.696;23.360;2024-02-26T00:58:38;92.43;;;43.45;;
34741;SDS011;20968;42.696;23.360;2024-02-26T01:01:04;96.45;;;46.58;;
34741;SDS011;20968;42.696;23.360;2024-02-26T01:03:29;87.90;;;46.95;;
34741;SDS011;20968;42.696;23.360;2024-02-26T01:05:54;97.68;;;42.75;;
34741;SDS011;20968;42.696;23.360;2024-02-26T01:08:20;97.47;;;48.22;;
34741;SDS011;20968;42.696;23.360;2024-02-26T01:10:45;96.35;;;46.03;;
34741;SDS011;20968;42.696;23.360;2024-02-26T01:13:10;94.50;;;45.15;;
34741;SDS011;20968;42.696;23.360;2024-02-26T01:15:36;96.47;;;42.17;;
34741;SDS011;20968;42.696;23.360;2024-02-26T01:18:01;95.40;;;44.30;;
34741;SDS011;20968;42.696;23.360;2024-02-26T01:20:27;93.13;;;47.65;;
34741;SDS011;20968;42.696;23.360;2024-02-26T01:22:52;95.70;;;49.00;;
34741;SDS011;20968;42.696;23.360;2024-02-26T01:25:17;100.82;;;50.35;;
34741;SDS011;20968;42.696;23.360;2024-02-26T01:27:43;91.22;;;43.25;;
34741;SDS011;20968;42.696;23.360;2024-02-26T01:30:09;94.38;;;45.03;;
34741;SDS011;20968;42.696;23.360;2024-02-26T01:32:35;94.75;;;45.63;;
34741;SDS011;20968;42.696;23.360;2024-02-26T01:35:01;95.43;;;40.53;;
34741;SDS011;20968;42.696;23.360;2024-02-26T01:37:28;99.10;;;46.20;;
34741;SDS011;20968;42.696;23.360;2024-02-26T01:39:57;96.22;;;44.13;;
34741;SDS011;20968;42.696;23.360;2024-02-26T01:42:22;95.95;;;43.58;;
34741;SDS011;20968;42.696;23.360;2024-02-26T01:44:47;97.13;;;46.22;;
34741;SDS011;20968;42.696;23.360;2024-02-26T01:47:13;91.22;;;47.75;;
34741;SDS011;20968;42.696;23.360;2024-02-26T01:49:38;95.88;;;45.15;;
34741;SDS011;20968;42.696;23.360;2024-02-26T01:52:04;98.82;;;43.45;;
34741;SDS011;20968;42.696;23.360;2024-02-26T01:54:33;98.53;;;44.92;;
34741;SDS011;20968;42.696;23.360;2024-02-26T01:57:01;95.80;;;43.58;;
34741;SDS011;20968;42.696;23.360;2024-02-26T01:59:28;93.32;;;44.90;;
34741;SDS011;20968;42.696;23.360;2024-02-26T02:01:55;94.63;;;48.47;;
34741;SDS011;20968;42.696;23.360;2024-02-26T02:04:22;100.68;;;49.30;;
34741;SDS011;20968;42.696;23.360;2024-02-26T02:06:48;99.07;;;48.60;;
34741;SDS011;20968;42.696;23.360;2024-02-26T02:09:14;99.97;;;50.33;;
34741;SDS011;20968;42.696;23.360;2024-02-26T02:11:40;99.93;;;45.95;;
34741;SDS011;20968;42.696;23.360;2024-02-26T02:14:06;102.63;;;46.30;;
34741;SDS011;20968;42.696;23.360;2024-02-26T02:16:31;101.88;;;50.13;;
34741;SDS011;20968;42.696;23.360;2024-02-26T02:18:58;94.63;;;44.63;;
34741;SDS011;20968;42.696;23.360;2024-02-26T02:21:23;100.63;;;46.75;;
34741;SDS011;20968;42.696;23.360;2024-02-26T02:23:49;95.55;;;50.60;;
34741;SDS011;20968;42.696;23.360;2024-02-26T02:26:14;98.60;;;47.78;;
34741;SDS011;20968;42.696;23.360;2024-02-26T02:28:40;105.20;;;53.40;;
34741;SDS011;20968;42.696;23.360;2024-02-26T02:31:06;132.25;;;60.03;;
34741;SDS011;20968;42.696;23.360;2024-02-26T02:33:33;102.90;;;54.13;;
34741;SDS011;20968;42.696;23.360;2024-02-26T02:35:59;110.30;;;48.88;;
34741;SDS011;20968;42.696;23.360;2024-02-26T02:38:25;99.68;;;50.33;;
34741;SDS011;20968;42.696;23.360;2024-02-26T02:40:51;95.55;;;47.38;;
34741;SDS011;20968;42.696;23.360;2024-02-26T02:43:17;94.93;;;45.08;;
34741;SDS011;20968;42.696;23.360;2024-02-26T02:45:42;97.13;;;42.92;;
34741;SDS011;20968;42.696;23.360;2024-02-26T02:48:07;95.30;;;41.80;;
34741;SDS011;20968;42.696;23.360;2024-02-26T02:50:33;86.20;;;41.70;;
34741;SDS011;20968;42.696;23.360;2024-02-26T02:52:58;92.00;;;45.65;;
34741;SDS011;20968;42.696;23.360;2024-02-26T02:55:24;89.82;;;48.05;;
34741;SDS011;20968;42.696;23.360;2024-02-26T02:57:50;92.88;;;45.50;;
34741;SDS011;20968;42.696;23.360;2024-02-26T03:00:15;88.70;;;46.05;;
34741;SDS011;20968;42.696;23.360;2024-02-26T03:02:41;92.13;;;43.75;;
34741;SDS011;20968;42.696;23.360;2024-02-26T03:05:07;88.75;;;42.55;;
34741;SDS011;20968;42.696;23.360;2024-02-26T03:07:33;86.57;;;44.25;;
34741;SDS011;20968;42.696;23.360;2024-02-26T03:09:58;91.47;;;41.53;;
34741;SDS011;20968;42.696;23.360;2024-02-26T03:12:24;91.43;;;44.30;;
34741;SDS011;20968;42.696;23.360;2024-02-26T03:14:49;93.32;;;40.70;;
34741;SDS011;20968;42.696;23.360;2024-02-26T03:17:16;94.18;;;44.70;;
34741;SDS011;20968;42.696;23.360;2024-02-26T03:19:41;92.82;;;46.33;;
34741;SDS011;20968;42.696;23.360;2024-02-26T03:22:08;111.40;;;51.25;;
34741;SDS011;20968;42.696;23.360;2024-02-26T03:24:34;95.35;;;47.17;;
34741;SDS011;20968;42.696;23.360;2024-02-26T03:26:59;100.20;;;47.45;;
34741;SDS011;20968;42.696;23.360;2024-02-26T03:29:24;89.43;;;43.75;;
34741;SDS011;20968;42.696;23.360;2024-02-26T03:31:50;87.75;;;46.38;;
34741;SDS011;20968;42.696;23.360;2024-02-26T03:34:15;97.60;;;48.00;;
34741;SDS011;20968;42.696;23.360;2024-02-26T03:36:42;86.70;;;47.47;;
34741;SDS011;20968;42.696;23.360;2024-02-26T03:39:07;90.93;;;41.88;;
34741;SDS011;20968;42.696;23.360;2024-02-26T03:41:33;91.00;;;45.08;;
34741;SDS011;20968;42.696;23.360;2024-02-26T03:43:59;87.78;;;42.67;;
34741;SDS011;20968;42.696;23.360;2024-02-26T03:46:25;94.45;;;45.15;;
34741;SDS011;20968;42.696;23.360;2024-02-26T03:48:50;91.30;;;45.58;;
34741;SDS011;20968;42.696;23.360;2024-02-26T03:51:16;93.43;;;46.42;;
34741;SDS011;20968;42.696;23.360;2024-02-26T03:53:41;89.00;;;38.13;;
34741;SDS011;20968;42.696;23.360;2024-02-26T03:56:06;88.93;;;45.80;;
34741;SDS011;20968;42.696;23.360;2024-02-26T03:58:32;89.38;;;41.15;;
34741;SDS011;20968;42.696;23.360;2024-02-26T04:00:58;92.93;;;43.67;;
34741;SDS011;20968;42.696;23.360;2024-02-26T04:03:24;92.80;;;39.72;;
34741;SDS011;20968;42.696;23.360;2024-02-26T04:05:50;93.63;;;46.15;;
34741;SDS011;20968;42.696;23.360;2024-02-26T04:08:15;96.55;;;48.95;;
34741;SDS011;20968;42.696;23.360;2024-02-26T04:10:41;107.38;;;52.70;;
34741;SDS011;20968;42.696;23.360;2024-02-26T04:13:07;101.95;;;46.92;;
34741;SDS011;20968;42.696;23.360;2024-02-26T04:15:33;101.82;;;53.92;;
34741;SDS011;20968;42.696;23.360;2024-02-26T04:17:58;106.70;;;47.13;;
34741;SDS011;20968;42.696;23.360;2024-02-26T04:20:24;99.38;;;48.53;;
34741;SDS011;20968;42.696;23.360;2024-02-26T04:22:50;101.65;;;49.08;;
34741;SDS011;20968;42.696;23.360;2024-02-26T04:25:15;99.40;;;45.72;;
34741;SDS011;20968;42.696;23.360;2024-02-26T04:27:40;97.72;;;49.22;;
34741;SDS011;20968;42.696;23.360;2024-02-26T04:30:06;109.47;;;49.45;;
34741;SDS011;20968;42.696;23.360;2024-02-26T04:32:33;99.30;;;45.38;;
34741;SDS011;20968;42.696;23.360;2024-02-26T04:34:59;100.90;;;50.47;;
34741;SDS011;20968;42.696;23.360;2024-02-26T04:37:25;92.78;;;42.00;;
34741;SDS011;20968;42.696;23.360;2024-02-26T04:39:55;99.40;;;53.00;;
34741;SDS011;20968;42.696;23.360;2024-02-26T04:42:22;100.50;;;46.10;;
34741;SDS011;20968;42.696;23.360;2024-02-26T04:44:47;105.32;;;47.72;;
34741;SDS011;20968;42.696;23.360;2024-02-26T04:47:13;100.30;;;50.03;;
34741;SDS011;20968;42.696;23.360;2024-02-26T04:49:39;101.00;;;46.65;;
34741;SDS011;20968;42.696;23.360;2024-02-26T04:52:04;101.07;;;48.08;;
34741;SDS011;20968;42.696;23.360;2024-02-26T04:54:30;107.05;;;51.28;;
34741;SDS011;20968;42.696;23.360;2024-02-26T04:56:55;103.85;;;52.08;;
34741;SDS011;20968;42.696;23.360;2024-02-26T04:59:20;105.68;;;48.17;;
34741;SDS011;20968;42.696;23.360;2024-02-26T05:01:46;99.75;;;45.28;;
34741;SDS011;20968;42.696;23.360;2024-02-26T05:04:12;93.90;;;44.35;;
34741;SDS011;20968;42.696;23.360;2024-02-26T05:06:37;80.15;;;42.17;;
34741;SDS011;20968;42.696;23.360;2024-02-26T05:09:03;77.93;;;39.42;;
34741;SDS011;20968;42.696;23.360;2024-02-26T05:11:28;78.45;;;36.53;;
34741;SDS011;20968;42.696;23.360;2024-02-26T05:13:54;79.78;;;37.15;;
34741;SDS011;20968;42.696;23.360;2024-02-26T05:16:19;83.47;;;41.60;;
34741;SDS011;20968;42.696;23.360;2024-02-26T05:18:47;83.85;;;40.70;;
34741;SDS011;20968;42.696;23.360;2024-02-26T05:21:12;82.47;;;38.03;;
34741;SDS011;20968;42.696;23.360;2024-02-26T05:23:37;78.93;;;38.08;;
34741;SDS011;20968;42.696;23.360;2024-02-26T05:26:03;80.68;;;40.75;;
34741;SDS011;20968;42.696;23.360;2024-02-26T05:28:28;79.35;;;39.33;;
34741;SDS011;20968;42.696;23.360;2024-02-26T05:30:54;87.22;;;43.67;;
34741;SDS011;20968;42.696;23.360;2024-02-26T05:33:19;81.28;;;38.97;;
34741;SDS011;20968;42.696;23.360;2024-02-26T05:35:44;83.45;;;41.88;;
34741;SDS011;20968;42.696;23.360;2024-02-26T05:38:10;83.20;;;42.42;;
34741;SDS011;20968;42.696;23.360;2024-02-26T05:40:35;83.78;;;40.13;;
34741;SDS011;20968;42.696;23.360;2024-02-26T05:43:01;86.65;;;40.40;;
34741;SDS011;20968;42.696;23.360;2024-02-26T05:45:27;87.85;;;43.22;;
34741;SDS011;20968;42.696;23.360;2024-02-26T05:47:52;94.43;;;39.42;;
34741;SDS011;20968;42.696;23.360;2024-02-26T05:50:17;91.05;;;41.58;;
34741;SDS011;20968;42.696;23.360;2024-02-26T05:52:43;86.70;;;44.00;;
34741;SDS011;20968;42.696;23.360;2024-02-26T05:55:08;86.53;;;44.38;;
34741;SDS011;20968;42.696;23.360;2024-02-26T05:57:34;93.10;;;43.40;;
34741;SDS011;20968;42.696;23.360;2024-02-26T06:00:00;90.57;;;38.95;;
34741;SDS011;20968;42.696;23.360;2024-02-26T06:02:31;100.22;;;41.60;;
34741;SDS011;20968;42.696;23.360;2024-02-26T06:04:57;87.22;;;43.50;;
34741;SDS011;20968;42.696;23.360;2024-02-26T06:07:23;95.53;;;45.38;;
34741;SDS011;20968;42.696;23.360;2024-02-26T06:09:48;98.20;;;46.42;;
34741;SDS011;20968;42.696;23.360;2024-02-26T06:12:13;95.82;;;45.63;;
34741;SDS011;20968;42.696;23.360;2024-02-26T06:14:39;90.90;;;48.08;;
34741;SDS011;20968;42.696;23.360;2024-02-26T06:17:04;95.30;;;44.63;;
34741;SDS011;20968;42.696;23.360;2024-02-26T06:19:30;93.38;;;42.83;;
34741;SDS011;20968;42.696;23.360;2024-02-26T06:21:55;91.40;;;43.35;;
34741;SDS011;20968;42.696;23.360;2024-02-26T06:24:21;87.35;;;46.10;;
34741;SDS011;20968;42.696;23.360;2024-02-26T06:26:47;90.28;;;46.70;;
34741;SDS011;20968;42.696;23.360;2024-02-26T06:29:13;95.63;;;52.53;;
34741;SDS011;20968;42.696;23.360;2024-02-26T06:31:38;94.53;;;48.38;;
34741;SDS011;20968;42.696;23.360;2024-02-26T06:34:04;99.00;;;45.38;;
34741;SDS011;20968;42.696;23.360;2024-02-26T06:36:29;96.13;;;49.70;;
34741;SDS011;20968;42.696;23.360;2024-02-26T06:38:57;94.13;;;45.33;;
34741;SDS011;20968;42.696;23.360;2024-02-26T06:41:22;92.35;;;46.20;;
34741;SDS011;20968;42.696;23.360;2024-02-26T06:43:53;93.65;;;47.67;;
34741;SDS011;20968;42.696;23.360;2024-02-26T06:46:18;96.75;;;46.47;;
34741;SDS011;20968;42.696;23.360;2024-02-26T06:48:44;100.72;;;48.65;;
34741;SDS011;20968;42.696;23.360;2024-02-26T06:51:09;98.50;;;48.97;;
34741;SDS011;20968;42.696;23.360;2024-02-26T06:53:35;97.80;;;47.55;;
34741;SDS011;20968;42.696;23.360;2024-02-26T06:56:00;99.30;;;49.17;;
34741;SDS011;20968;42.696;23.360;2024-02-26T06:58:25;105.57;;;50.40;;
34741;SDS011;20968;42.696;23.360;2024-02-26T07:00:51;99.47;;;46.08;;
34741;SDS011;20968;42.696;23.360;2024-02-26T07:03:16;90.55;;;47.85;;
34741;SDS011;20968;42.696;23.360;2024-02-26T07:05:42;89.05;;;43.92;;
34741;SDS011;20968;42.696;23.360;2024-02-26T07:08:07;99.50;;;44.38;;
34741;SDS011;20968;42.696;23.360;2024-02-26T07:10:32;89.20;;;45.17;;
34741;SDS011;20968;42.696;23.360;2024-02-26T07:12:58;89.93;;;47.78;;
34741;SDS011;20968;42.696;23.360;2024-02-26T07:15:24;93.57;;;45.10;;
34741;SDS011;20968;42.696;23.360;2024-02-26T07:17:50;103.32;;;47.72;;
34741;SDS011;20968;42.696;23.360;2024-02-26T07:20:15;89.28;;;44.42;;
34741;SDS011;20968;42.696;23.360;2024-02-26T07:22:43;90.05;;;42.53;;
34741;SDS011;20968;42.696;23.360;2024-02-26T07:25:08;89.10;;;46.63;;
34741;SDS011;20968;42.696;23.360;2024-02-26T07:27:38;95.70;;;47.58;;
34741;SDS011;20968;42.696;23.360;2024-02-26T07:30:03;94.68;;;46.42;;
34741;SDS011;20968;42.696;23.360;2024-02-26T07:32:29;99.78;;;49.75;;
34741;SDS011;20968;42.696;23.360;2024-02-26T07:34:54;104.15;;;49.75;;
34741;SDS011;20968;42.696;23.360;2024-02-26T07:37:20;109.78;;;52.17;;
34741;SDS011;20968;42.696;23.360;2024-02-26T07:39:45;103.93;;;51.20;;
34741;SDS011;20968;42.696;23.360;2024-02-26T07:42:11;122.82;;;54.78;;
34741;SDS011;20968;42.696;23.360;2024-02-26T07:44:36;109.85;;;48.65;;
34741;SDS011;20968;42.696;23.360;2024-02-26T07:47:02;112.45;;;54.22;;
34741;SDS011;20968;42.696;23.360;2024-02-26T07:49:28;111.30;;;50.90;;
34741;SDS011;20968;42.696;23.360;2024-02-26T07:51:53;109.15;;;52.55;;
34741;SDS011;20968;42.696;23.360;2024-02-26T07:54:19;107.35;;;51.63;;
34741;SDS011;20968;42.696;23.360;2024-02-26T07:56:45;113.10;;;50.38;;
34741;SDS011;20968;42.696;23.360;2024-02-26T07:59:10;110.65;;;51.67;;
34741;SDS011;20968;42.696;23.360;2024-02-26T08:01:35;95.10;;;48.35;;
34741;SDS011;20968;42.696;23.360;2024-02-26T08:04:04;107.47;;;52.03;;
34741;SDS011;20968;42.696;23.360;2024-02-26T08:06:29;105.50;;;47.28;;
34741;SDS011;20968;42.696;23.360;2024-02-26T08:08:55;101.28;;;52.97;;
34741;SDS011;20968;42.696;23.360;2024-02-26T08:11:20;98.68;;;44.67;;
34741;SDS011;20968;42.696;23.360;2024-02-26T08:13:46;98.25;;;48.70;;
34741;SDS011;20968;42.696;23.360;2024-02-26T08:16:11;95.43;;;43.67;;
34741;SDS011;20968;42.696;23.360;2024-02-26T08:18:37;93.85;;;42.17;;
34741;SDS011;20968;42.696;23.360;2024-02-26T08:21:02;95.45;;;48.95;;
34741;SDS011;20968;42.696;23.360;2024-02-26T08:23:28;102.70;;;43.15;;
34741;SDS011;20968;42.696;23.360;2024-02-26T08:25:56;102.00;;;40.53;;
34741;SDS011;20968;42.696;23.360;2024-02-26T08:28:21;98.80;;;44.90;;
34741;SDS011;20968;42.696;23.360;2024-02-26T08:30:47;97.85;;;42.45;;
34741;SDS011;20968;42.696;23.360;2024-02-26T08:33:12;95.97;;;46.83;;
34741;SDS011;20968;42.696;23.360;2024-02-26T08:35:38;94.97;;;44.70;;
34741;SDS011;20968;42.696;23.360;2024-02-26T08:38:04;93.38;;;45.75;;
34741;SDS011;20968;42.696;23.360;2024-02-26T08:40:29;96.63;;;46.15;;
34741;SDS011;20968;42.696;23.360;2024-02-26T08:42:54;95.15;;;46.78;;
34741;SDS011;20968;42.696;23.360;2024-02-26T08:45:20;89.18;;;40.63;;
34741;SDS011;20968;42.696;23.360;2024-02-26T08:47:46;84.25;;;38.42;;
34741;SDS011;20968;42.696;23.360;2024-02-26T08:50:11;94.25;;;43.47;;
34741;SDS011;20968;42.696;23.360;2024-02-26T08:52:37;83.55;;;39.42;;
34741;SDS011;20968;42.696;23.360;2024-02-26T08:55:03;82.60;;;36.20;;
34741;SDS011;20968;42.696;23.360;2024-02-26T08:57:29;83.28;;;38.38;;
34741;SDS011;20968;42.696;23.360;2024-02-26T08:59:57;83.70;;;37.80;;
34741;SDS011;20968;42.696;23.360;2024-02-26T09:02:23;76.32;;;33.95;;
34741;SDS011;20968;42.696;23.360;2024-02-26T09:04:48;81.60;;;36.33;;
34741;SDS011;20968;42.696;23.360;2024-02-26T09:07:13;85.93;;;39.13;;
34741;SDS011;20968;42.696;23.360;2024-02-26T09:09:39;77.05;;;39.10;;
34741;SDS011;20968;42.696;23.360;2024-02-26T09:12:04;82.40;;;41.40;;
34741;SDS011;20968;42.696;23.360;2024-02-26T09:14:30;80.03;;;36.38;;
34741;SDS011;20968;42.696;23.360;2024-02-26T09:16:55;83.25;;;36.65;;
34741;SDS011;20968;42.696;23.360;2024-02-26T09:19:21;80.90;;;39.17;;
34741;SDS011;20968;42.696;23.360;2024-02-26T09:21:46;81.07;;;38.10;;
34741;SDS011;20968;42.696;23.360;2024-02-26T09:24:12;76.55;;;33.30;;
34741;SDS011;20968;42.696;23.360;2024-02-26T09:26:38;75.82;;;33.85;;
34741;SDS011;20968;42.696;23.360;2024-02-26T09:29:03;74.93;;;31.45;;
34741;SDS011;20968;42.696;23.360;2024-02-26T09:31:29;66.25;;;31.80;;
34741;SDS011;20968;42.696;23.360;2024-02-26T09:33:55;69.82;;;29.75;;
34741;SDS011;20968;42.696;23.360;2024-02-26T09:36:20;66.75;;;30.65;;
34741;SDS011;20968;42.696;23.360;2024-02-26T09:38:46;63.47;;;29.60;;
34741;SDS011;20968;42.696;23.360;2024-02-26T09:41:14;64.90;;;26.75;;
34741;SDS011;20968;42.696;23.360;2024-02-26T09:43:41;61.83;;;26.15;;
34741;SDS011;20968;42.696;23.360;2024-02-26T09:46:10;61.25;;;26.60;;
34741;SDS011;20968;42.696;23.360;2024-02-26T09:48:35;64.47;;;20.92;;
34741;SDS011;20968;42.696;23.360;2024-02-26T09:51:03;67.10;;;29.33;;
34741;SDS011;20968;42.696;23.360;2024-02-26T09:53:29;66.28;;;28.23;;
34741;SDS011;20968;42.696;23.360;2024-02-26T09:55:59;62.92;;;27.90;;
34741;SDS011;20968;42.696;23.360;2024-02-26T09:58:26;65.65;;;24.67;;
34741;SDS011;20968;42.696;23.360;2024-02-26T10:00:54;64.63;;;27.00;;
34741;SDS011;20968;42.696;23.360;2024-02-26T10:03:24;67.63;;;27.00;;
34741;SDS011;20968;42.696;23.360;2024-02-26T10:05:52;64.03;;;23.88;;
34741;SDS011;20968;42.696;23.360;2024-02-26T10:08:20;73.38;;;26.92;;
34741;SDS011;20968;42.696;23.360;2024-02-26T10:10:47;69.38;;;30.35;;
34741;SDS011;20968;42.696;23.360;2024-02-26T10:13:12;62.33;;;26.27;;
34741;SDS011;20968;42.696;23.360;2024-02-26T10:15:38;66.63;;;28.08;;
34741;SDS011;20968;42.696;23.360;2024-02-26T10:18:04;67.28;;;23.25;;
34741;SDS011;20968;42.696;23.360;2024-02-26T10:20:32;63.80;;;28.15;;
34741;SDS011;20968;42.696;23.360;2024-02-26T10:22:58;64.85;;;30.90;;
34741;SDS011;20968;42.696;23.360;2024-02-26T10:25:27;61.67;;;27.70;;
34741;SDS011;20968;42.696;23.360;2024-02-26T10:27:52;61.85;;;27.55;;
34741;SDS011;20968;42.696;23.360;2024-02-26T10:30:18;60.60;;;29.55;;
34741;SDS011;20968;42.696;23.360;2024-02-26T10:32:46;65.28;;;29.42;;
34741;SDS011;20968;42.696;23.360;2024-02-26T10:35:12;61.72;;;29.00;;
34741;SDS011;20968;42.696;23.360;2024-02-26T10:37:39;62.78;;;25.33;;
34741;SDS011;20968;42.696;23.360;2024-02-26T10:40:05;63.38;;;27.85;;
34741;SDS011;20968;42.696;23.360;2024-02-26T10:42:33;60.38;;;23.65;;
34741;SDS011;20968;42.696;23.360;2024-02-26T10:44:58;61.20;;;23.05;;
34741;SDS011;20968;42.696;23.360;2024-02-26T10:47:24;67.28;;;27.45;;
34741;SDS011;20968;42.696;23.360;2024-02-26T10:49:49;59.25;;;28.65;;
34741;SDS011;20968;42.696;23.360;2024-02-26T10:52:15;59.78;;;28.20;;
34741;SDS011;20968;42.696;23.360;2024-02-26T10:54:44;62.90;;;32.47;;
34741;SDS011;20968;42.696;23.360;2024-02-26T10:57:15;60.30;;;27.80;;
34741;SDS011;20968;42.696;23.360;2024-02-26T10:59:42;62.35;;;26.05;;
34741;SDS011;20968;42.696;23.360;2024-02-26T11:02:09;59.58;;;27.00;;
34741;SDS011;20968;42.696;23.360;2024-02-26T11:04:36;61.13;;;28.58;;
34741;SDS011;20968;42.696;23.360;2024-02-26T11:07:03;62.05;;;27.17;;
34741;SDS011;20968;42.696;23.360;2024-02-26T11:09:29;63.33;;;26.65;;
34741;SDS011;20968;42.696;23.360;2024-02-26T11:11:57;60.75;;;28.77;;
34741;SDS011;20968;42.696;23.360;2024-02-26T11:14:22;62.50;;;24.20;;
34741;SDS011;20968;42.696;23.360;2024-02-26T11:16:50;62.53;;;27.52;;
34741;SDS011;20968;42.696;23.360;2024-02-26T11:19:16;59.50;;;25.77;;
34741;SDS011;20968;42.696;23.360;2024-02-26T11:21:43;59.42;;;25.50;;
34741;SDS011;20968;42.696;23.360;2024-02-26T11:24:11;59.20;;;30.45;;
34741;SDS011;20968;42.696;23.360;2024-02-26T11:26:48;61.38;;;26.38;;
34741;SDS011;20968;42.696;23.360;2024-02-26T11:29:25;59.83;;;29.83;;
34741;SDS011;20968;42.696;23.360;2024-02-26T11:31:53;62.42;;;27.45;;
34741;SDS011;20968;42.696;23.360;2024-02-26T11:34:18;61.55;;;26.30;;
34741;SDS011;20968;42.696;23.360;2024-02-26T11:36:44;58.63;;;24.98;;
34741;SDS011;20968;42.696;23.360;2024-02-26T11:39:11;61.92;;;25.02;;
34741;SDS011;20968;42.696;23.360;2024-02-26T11:41:38;67.80;;;30.15;;
34741;SDS011;20968;42.696;23.360;2024-02-26T11:44:03;64.53;;;27.98;;
34741;SDS011;20968;42.696;23.360;2024-02-26T11:46:38;61.30;;;28.55;;
34741;SDS011;20968;42.696;23.360;2024-02-26T11:51:53;65.30;;;30.00;;
34741;SDS011;20968;42.696;23.360;2024-02-26T11:57:23;59.55;;;30.17;;
34741;SDS011;20968;42.696;23.360;2024-02-26T11:59:48;59.75;;;27.00;;
34741;SDS011;20968;42.696;23.360;2024-02-26T12:05:19;61.08;;;28.42;;
34741;SDS011;20968;42.696;23.360;2024-02-26T12:08:10;61.35;;;26.60;;
34741;SDS011;20968;42.696;23.360;2024-02-26T12:10:38;61.42;;;23.67;;
34741;SDS011;20968;42.696;23.360;2024-02-26T12:13:10;61.67;;;26.90;;
34741;SDS011;20968;42.696;23.360;2024-02-26T12:15:41;63.63;;;24.17;;
34741;SDS011;20968;42.696;23.360;2024-02-26T12:18:08;62.40;;;24.42;;
34741;SDS011;20968;42.696;23.360;2024-02-26T12:20:35;61.65;;;28.52;;
34741;SDS011;20968;42.696;23.360;2024-02-26T12:23:05;61.47;;;28.65;;
34741;SDS011;20968;42.696;23.360;2024-02-26T12:25:30;60.10;;;26.40;;
34741;SDS011;20968;42.696;23.360;2024-02-26T12:27:57;64.43;;;28.27;;
34741;SDS011;20968;42.696;23.360;2024-02-26T12:30:23;59.50;;;27.63;;
34741;SDS011;20968;42.696;23.360;2024-02-26T12:32:51;60.38;;;29.10;;
34741;SDS011;20968;42.696;23.360;2024-02-26T12:35:17;60.60;;;28.23;;
34741;SDS011;20968;42.696;23.360;2024-02-26T12:37:43;61.42;;;28.42;;
34741;SDS011;20968;42.696;23.360;2024-02-26T12:40:09;69.50;;;23.73;;
34741;SDS011;20968;42.696;23.360;2024-02-26T12:42:36;59.20;;;21.40;;
34741;SDS011;20968;42.696;23.360;2024-02-26T12:45:09;62.90;;;27.20;;
34741;SDS011;20968;42.696;23.360;2024-02-26T12:47:37;61.35;;;25.95;;
34741;SDS011;20968;42.696;23.360;2024-02-26T12:50:06;62.45;;;23.02;;
34741;SDS011;20968;42.696;23.360;2024-02-26T12:52:45;63.15;;;28.92;;
34741;SDS011;20968;42.696;23.360;2024-02-26T12:55:15;60.83;;;26.52;;
34741;SDS011;20968;42.696;23.360;2024-02-26T12:57:43;61.47;;;23.08;;
34741;SDS011;20968;42.696;23.360;2024-02-26T13:00:14;61.28;;;28.75;;
34741;SDS011;20968;42.696;23.360;2024-02-26T13:02:41;64.43;;;27.95;;
34741;SDS011;20968;42.696;23.360;2024-02-26T13:05:10;61.90;;;24.67;;
34741;SDS011;20968;42.696;23.360;2024-02-26T13:07:41;63.72;;;28.60;;
34741;SDS011;20968;42.696;23.360;2024-02-26T13:10:08;65.57;;;25.88;;
34741;SDS011;20968;42.696;23.360;2024-02-26T13:12:34;63.95;;;31.27;;
34741;SDS011;20968;42.696;23.360;2024-02-26T13:15:03;62.28;;;28.98;;
34741;SDS011;20968;42.696;23.360;2024-02-26T13:17:32;59.50;;;24.63;;
34741;SDS011;20968;42.696;23.360;2024-02-26T13:19:58;59.78;;;26.85;;
34741;SDS011;20968;42.696;23.360;2024-02-26T13:22:23;59.38;;;26.50;;
34741;SDS011;20968;42.696;23.360;2024-02-26T13:24:55;62.40;;;25.77;;
34741;SDS011;20968;42.696;23.360;2024-02-26T13:27:23;62.75;;;24.17;;
34741;SDS011;20968;42.696;23.360;2024-02-26T13:30:01;60.95;;;25.88;;
34741;SDS011;20968;42.696;23.360;2024-02-26T13:32:37;65.20;;;26.98;;
34741;SDS011;20968;42.696;23.360;2024-02-26T13:35:13;61.00;;;24.88;;
34741;SDS011;20968;42.696;23.360;2024-02-26T13:37:39;59.95;;;23.13;;
34741;SDS011;20968;42.696;23.360;2024-02-26T13:40:06;62.08;;;24.80;;
34741;SDS011;20968;42.696;23.360;2024-02-26T13:42:33;61.00;;;27.13;;
34741;SDS011;20968;42.696;23.360;2024-02-26T13:44:59;62.05;;;26.48;;
34741;SDS011;20968;42.696;23.360;2024-02-26T13:47:25;63.00;;;24.85;;
34741;SDS011;20968;42.696;23.360;2024-02-26T13:49:50;60.38;;;27.38;;
34741;SDS011;20968;42.696;23.360;2024-02-26T13:52:15;64.70;;;26.80;;
34741;SDS011;20968;42.696;23.360;2024-02-26T13:54:41;60.75;;;23.95;;
34741;SDS011;20968;42.696;23.360;2024-02-26T13:57:07;60.42;;;27.67;;
34741;SDS011;20968;42.696;23.360;2024-02-26T13:59:33;63.15;;;25.80;;
34741;SDS011;20968;42.696;23.360;2024-02-26T14:01:59;62.22;;;29.70;;
34741;SDS011;20968;42.696;23.360;2024-02-26T14:04:24;60.00;;;24.38;;
34741;SDS011;20968;42.696;23.360;2024-02-26T14:06:50;60.83;;;30.98;;
34741;SDS011;20968;42.696;23.360;2024-02-26T14:09:15;60.00;;;24.85;;